Terminal Aerodrome Forecast
Issued by NWS

Home | Current Version | Previous Version | Text Only | Print | Product List | Glossary Off
Versions: 1 2 3 4 5 6 7 8 9 10 11 12 13 14 15 16 17 18 19

000
FTUS43 KMPX 290536
TAFRWF
TAF
KRWF 290536Z 2906/3006 33009KT 2SM BR OVC003
      TEMPO 2906/2908 4SM BR OVC006
     FM290800 32023G32KT P6SM OVC012
     FM291400 32020G30KT P6SM BKN020
     FM291800 32017G25KT P6SM SCT025
     FM300200 33009KT P6SM SKC=

USA.gov is the U.S. government's official web portal to all federal, state and local government web resources and services.